createdAt,value
2018-03-01T00:02:17.164Z,-2.00
2018-03-01T00:04:44.723Z,-2.10
2018-03-01T00:07:12.255Z,-2.00
2018-03-01T00:09:41.777Z,-2.20
2018-03-01T00:12:09.317Z,-2.20
2018-03-01T00:14:36.879Z,-2.20
2018-03-01T00:17:05.387Z,-2.20
2018-03-01T00:19:33.723Z,-2.30
2018-03-01T00:22:01.472Z,-2.30
2018-03-01T00:24:29.015Z,-2.20
2018-03-01T00:26:56.579Z,-2.30
2018-03-01T00:29:24.119Z,-2.20
2018-03-01T00:31:52.452Z,-2.20
2018-03-01T00:34:20.050Z,-2.20
2018-03-01T00:36:48.526Z,-2.10
2018-03-01T00:39:16.100Z,-2.10
2018-03-01T00:41:43.639Z,-2.30
2018-03-01T00:44:11.989Z,-2.30
2018-03-01T00:46:39.526Z,-2.30
2018-03-01T00:49:07.099Z,-2.30
2018-03-01T00:51:34.639Z,-2.30
2018-03-01T00:54:02.176Z,-2.30
2018-03-01T00:56:30.708Z,-2.30
2018-03-01T00:58:58.253Z,-2.20
2018-03-01T01:01:26.771Z,-2.10
2018-03-01T01:03:54.320Z,-2.00
2018-03-01T01:06:21.896Z,-2.10
2018-03-01T01:08:49.426Z,-2.10
2018-03-01T01:11:16.956Z,-2.10
2018-03-01T01:13:44.521Z,-2.20
2018-03-01T01:16:12.072Z,-2.10
2018-03-01T01:18:39.647Z,-1.90
2018-03-01T01:21:07.181Z,-2.00
2018-03-01T01:23:34.749Z,-2.00
2018-03-01T01:26:02.282Z,-1.70
2018-03-01T01:28:29.851Z,-1.60
2018-03-01T01:30:57.397Z,-1.60
2018-03-01T01:33:25.043Z,-1.60
2018-03-01T01:35:53.570Z,-1.50
2018-03-01T01:38:21.109Z,-1.40
2018-03-01T01:40:48.683Z,-1.50
2018-03-01T01:43:16.219Z,-1.50
2018-03-01T01:45:43.779Z,-1.60
2018-03-01T01:48:11.322Z,-1.80
2018-03-01T01:50:51.634Z,-1.60
2018-03-01T01:53:19.175Z,-1.80
2018-03-01T01:55:46.702Z,-2.20
2018-03-01T01:58:14.270Z,-2.30
2018-03-01T02:00:41.796Z,-2.30
2018-03-01T02:03:11.294Z,-2.10
2018-03-01T02:05:39.603Z,-2.30
2018-03-01T02:08:07.177Z,-2.30
2018-03-01T02:10:34.718Z,-2.40
2018-03-01T02:13:02.264Z,-2.50
2018-03-01T02:15:30.605Z,-2.10
2018-03-01T02:17:58.149Z,-2.10
2018-03-01T02:20:25.732Z,-1.80
2018-03-01T02:22:53.281Z,-1.60
2018-03-01T02:25:20.823Z,-1.70
2018-03-01T02:27:48.403Z,-1.60
2018-03-01T02:30:28.860Z,-2.00
2018-03-01T02:32:56.429Z,-2.30
2018-03-01T02:35:24.935Z,-2.10
2018-03-01T02:37:53.260Z,-2.60
2018-03-01T02:40:20.837Z,-2.60
2018-03-01T02:42:49.380Z,-2.60
2018-03-01T02:45:16.945Z,-2.70
2018-03-01T02:47:44.483Z,-2.90
2018-03-01T02:50:12.059Z,-3.10
2018-03-01T02:52:39.613Z,-3.20
2018-03-01T02:55:07.190Z,-3.30
2018-03-01T02:57:34.740Z,-3.10
2018-03-01T03:00:02.284Z,-3.10
2018-03-01T03:02:31.823Z,-3.00
2018-03-01T03:04:59.358Z,-3.40
2018-03-01T03:07:26.919Z,-3.40
2018-03-01T03:09:54.464Z,-3.40
2018-03-01T03:12:22.799Z,-3.40
2018-03-01T03:14:50.330Z,-3.40
2018-03-01T03:17:17.895Z,-3.30
2018-03-01T03:19:45.467Z,-3.30
2018-03-01T03:22:13.015Z,-3.10
2018-03-01T03:24:40.587Z,-3.00
2018-03-01T03:27:08.125Z,-3.30
2018-03-01T03:29:35.702Z,-3.20
2018-03-01T03:32:03.248Z,-3.40
2018-03-01T03:34:30.786Z,-3.10
2018-03-01T03:36:58.466Z,-3.00
2018-03-01T03:39:26.964Z,-2.80
2018-03-01T03:41:56.494Z,-2.60
2018-03-01T03:44:24.044Z,-2.50
2018-03-01T03:46:51.612Z,-2.40
2018-03-01T03:49:20.112Z,-2.60
2018-03-01T03:51:47.641Z,-2.70
2018-03-01T03:54:15.219Z,-2.90
2018-03-01T03:56:43.765Z,-3.10
2018-03-01T03:59:11.526Z,-3.10
2018-03-01T04:01:39.206Z,-3.30
2018-03-01T04:04:06.772Z,-3.50
2018-03-01T04:06:34.453Z,-3.50
2018-03-01T04:09:02.982Z,-3.30
2018-03-01T04:11:30.562Z,-3.50
2018-03-01T04:13:58.106Z,-3.60
2018-03-01T04:16:27.605Z,-3.50
2018-03-01T04:18:55.140Z,-3.30
2018-03-01T04:21:22.700Z,-3.40
2018-03-01T04:23:50.243Z,-3.50
2018-03-01T04:26:18.544Z,-3.00
2018-03-01T04:28:46.111Z,-3.10
2018-03-01T04:31:14.668Z,-2.70
2018-03-01T04:33:42.244Z,-2.50
2018-03-01T04:36:09.780Z,-2.50
2018-03-01T04:38:38.115Z,-2.50
2018-03-01T04:41:05.658Z,-2.50
2018-03-01T04:43:33.245Z,-2.80
2018-03-01T04:46:00.795Z,-2.70
2018-03-01T04:48:28.340Z,-2.70
2018-03-01T04:50:55.900Z,-2.90
2018-03-01T04:53:23.459Z,-2.80
2018-03-01T04:55:51.947Z,-2.60
2018-03-01T04:58:19.497Z,-2.80
2018-03-01T05:00:47.060Z,-3.00
2018-03-01T05:03:14.612Z,-2.80
2018-03-01T05:05:42.181Z,-2.70
2018-03-01T05:08:09.726Z,-2.80
2018-03-01T05:10:37.268Z,-2.70
2018-03-01T05:13:04.844Z,-2.60
2018-03-01T05:15:32.385Z,-2.50
2018-03-01T05:18:01.940Z,-2.50
2018-03-01T05:20:30.251Z,-2.70
2018-03-01T05:22:59.786Z,-2.70
2018-03-01T05:25:27.323Z,-2.80
2018-03-01T05:27:54.891Z,-2.60
2018-03-01T05:30:22.441Z,-2.50
2018-03-01T05:32:50.969Z,-2.60
2018-03-01T05:35:18.548Z,-2.50
2018-03-01T05:37:46.859Z,-2.40
2018-03-01T05:40:15.412Z,-2.40
2018-03-01T05:42:42.957Z,-2.70
2018-03-01T05:45:10.532Z,-2.80
2018-03-01T05:47:38.127Z,-2.60
2018-03-01T05:50:07.358Z,-2.50
2018-03-01T05:52:34.911Z,-2.50
2018-03-01T05:55:02.463Z,-2.50
2018-03-01T05:57:30.824Z,-2.70
2018-03-01T05:59:58.378Z,-2.70
2018-03-01T06:02:26.912Z,-2.80
2018-03-01T06:04:55.247Z,-2.60
2018-03-01T06:07:22.841Z,-2.60
2018-03-01T06:09:51.344Z,-2.40
2018-03-01T06:12:18.884Z,-2.50
2018-03-01T06:14:46.452Z,-2.60
2018-03-01T06:17:14.000Z,-2.60
2018-03-01T06:19:41.575Z,-2.70
2018-03-01T06:22:09.112Z,-2.80
2018-03-01T06:24:36.685Z,-2.60
2018-03-01T06:27:04.999Z,-2.90
2018-03-01T06:29:32.572Z,-2.90
2018-03-01T06:32:01.059Z,-2.70
2018-03-01T06:34:28.635Z,-2.60
2018-03-01T06:36:56.194Z,-2.60
2018-03-01T06:39:23.733Z,-2.50
2018-03-01T06:41:51.295Z,-2.50
2018-03-01T06:44:18.844Z,-2.60
2018-03-01T06:46:46.415Z,-2.40
2018-03-01T06:49:13.955Z,-2.50
2018-03-01T06:51:41.511Z,-2.80
2018-03-01T06:54:09.111Z,-3.00
2018-03-01T06:56:37.607Z,-2.80
2018-03-01T06:59:06.199Z,-2.60
2018-03-01T07:01:33.708Z,-2.40
2018-03-01T07:04:01.285Z,-2.40
2018-03-01T07:06:28.821Z,-2.50
2018-03-01T07:08:57.324Z,-2.60
2018-03-01T07:11:24.886Z,-2.60
2018-03-01T07:13:53.404Z,-2.60
2018-03-01T07:16:20.972Z,-2.50
2018-03-01T07:18:48.553Z,-2.40
2018-03-01T07:21:16.155Z,-2.50
2018-03-01T07:23:43.698Z,-2.30
2018-03-01T07:26:11.240Z,-2.40
2018-03-01T07:28:38.815Z,-2.40
2018-03-01T07:31:07.304Z,-2.40
2018-03-01T07:33:34.876Z,-2.10
2018-03-01T07:36:02.429Z,-2.00
2018-03-01T07:38:30.799Z,-2.00
2018-03-01T07:40:58.334Z,-2.00
2018-03-01T07:43:25.917Z,-2.30
2018-03-01T07:45:53.446Z,-2.50
2018-03-01T07:48:21.013Z,-2.50
2018-03-01T07:50:48.604Z,-2.30
2018-03-01T07:53:17.120Z,-2.10
2018-03-01T07:55:46.637Z,-2.10
2018-03-01T07:58:14.184Z,-1.90
2018-03-01T08:00:42.520Z,-1.70
2018-03-01T08:03:10.068Z,-1.70
2018-03-01T08:05:37.605Z,-1.80
2018-03-01T08:08:07.130Z,-1.80
2018-03-01T08:10:34.677Z,-1.80
2018-03-01T08:13:02.279Z,-1.80
2018-03-01T08:15:29.867Z,-2.00
2018-03-01T08:17:58.196Z,-2.30
2018-03-01T08:20:25.787Z,-2.30
2018-03-01T08:22:53.343Z,-2.30
2018-03-01T08:25:20.938Z,-2.40
2018-03-01T08:27:48.484Z,-2.70
2018-03-01T08:30:16.062Z,-2.60
2018-03-01T08:32:44.359Z,-2.30
2018-03-01T08:35:13.084Z,-2.40
2018-03-01T08:37:41.732Z,-2.60
2018-03-01T08:40:10.230Z,-2.90
2018-03-01T08:42:37.787Z,-2.90
2018-03-01T08:45:06.119Z,-2.70
2018-03-01T08:47:33.694Z,-2.30
2018-03-01T08:50:01.240Z,-2.40
2018-03-01T08:52:28.803Z,-2.20
2018-03-01T08:54:56.384Z,-2.00
2018-03-01T08:57:23.937Z,-1.80
2018-03-01T08:59:51.497Z,-1.70
2018-03-01T09:02:19.035Z,-1.60
2018-03-01T09:04:46.631Z,-1.60
2018-03-01T09:07:14.204Z,-1.60
2018-03-01T09:09:42.395Z,-1.90
2018-03-01T09:12:09.942Z,-1.80
2018-03-01T09:14:37.536Z,-1.50
2018-03-01T09:17:06.818Z,-1.80
2018-03-01T09:19:34.351Z,-1.80
2018-03-01T09:22:01.913Z,-1.40
2018-03-01T09:24:29.450Z,-1.60
2018-03-01T09:26:57.014Z,-1.60
2018-03-01T09:29:24.552Z,-1.80
2018-03-01T09:31:52.128Z,-1.50
2018-03-01T09:34:19.675Z,-1.40
2018-03-01T09:36:47.233Z,-1.70
2018-03-01T09:39:14.810Z,-1.90
2018-03-01T09:41:42.348Z,-1.50
2018-03-01T09:44:09.916Z,-1.20
2018-03-01T09:46:37.454Z,-1.20
2018-03-01T09:49:05.024Z,-1.60
2018-03-01T09:51:32.559Z,-1.60
2018-03-01T09:54:00.892Z,-1.40
2018-03-01T09:56:28.443Z,-1.40
2018-03-01T09:58:56.001Z,-1.10
2018-03-01T10:01:23.563Z,-0.80
2018-03-01T10:03:51.108Z,-0.60
2018-03-01T10:06:18.680Z,-0.60
2018-03-01T10:08:46.228Z,-0.50
2018-03-01T10:11:13.788Z,-1.10
2018-03-01T10:13:41.327Z,-1.00
2018-03-01T10:16:08.894Z,-1.10
2018-03-01T10:18:36.445Z,-0.90
2018-03-01T10:21:03.997Z,-0.90
2018-03-01T10:23:31.586Z,-1.10
2018-03-01T10:25:59.119Z,-0.90
2018-03-01T10:28:26.683Z,-0.60
2018-03-01T10:30:54.228Z,-0.40
2018-03-01T10:33:21.803Z,-0.80
2018-03-01T10:35:49.344Z,-0.70
2018-03-01T10:38:16.934Z,-0.60
2018-03-01T10:40:44.480Z,-0.40
2018-03-01T10:43:13.029Z,-0.20
2018-03-01T10:45:41.367Z,-1.20
2018-03-01T10:48:09.848Z,-1.30
2018-03-01T10:50:37.407Z,-1.00
2018-03-01T10:53:05.178Z,-0.90
2018-03-01T10:55:32.773Z,-0.90
2018-03-01T10:58:00.368Z,-0.80
2018-03-01T11:00:33.512Z,-0.40
2018-03-01T11:03:01.080Z,-0.20
2018-03-01T11:05:28.643Z,-0.20
2018-03-01T11:07:56.976Z,-0.50
2018-03-01T11:10:24.515Z,-0.50
2018-03-01T11:12:52.109Z,-0.10
2018-03-01T11:15:19.674Z,0.30
2018-03-01T11:17:49.182Z,0.60
2018-03-01T11:20:18.417Z,-0.10
2018-03-01T11:22:45.968Z,-0.10
2018-03-01T11:25:13.548Z,-0.40
2018-03-01T11:27:42.033Z,-0.60
2018-03-01T11:30:09.675Z,-0.30
2018-03-01T11:32:37.212Z,0.10
2018-03-01T11:35:04.826Z,0.50
2018-03-01T11:37:32.351Z,0.90
2018-03-01T11:39:59.891Z,0.90
2018-03-01T11:42:27.443Z,0.70
2018-03-01T11:44:55.012Z,0.40
2018-03-01T11:47:22.571Z,0.90
2018-03-01T11:49:50.144Z,0.90
2018-03-01T11:52:17.748Z,1.10
2018-03-01T11:54:45.307Z,1.20
2018-03-01T11:57:12.869Z,1.00
2018-03-01T11:59:40.427Z,0.70
2018-03-01T12:02:07.956Z,0.80
2018-03-01T12:04:35.519Z,0.70
2018-03-01T12:07:04.006Z,0.50
2018-03-01T12:09:31.555Z,0.40
2018-03-01T12:11:59.099Z,0.40
2018-03-01T12:14:26.655Z,0.70
2018-03-01T12:16:55.160Z,0.40
2018-03-01T12:19:22.705Z,0.80
2018-03-01T12:21:50.331Z,1.10
2018-03-01T12:24:17.869Z,1.70
2018-03-01T12:26:46.015Z,1.70
2018-03-01T12:29:13.592Z,1.70
2018-03-01T12:31:41.192Z,1.40
2018-03-01T12:34:09.499Z,1.60
2018-03-01T12:36:37.073Z,1.60
2018-03-01T12:39:04.629Z,1.30
2018-03-01T12:41:32.187Z,0.60
2018-03-01T12:43:59.725Z,1.30
2018-03-01T12:46:27.296Z,2.10
2018-03-01T12:48:54.869Z,1.80
2018-03-01T12:51:22.408Z,2.20
2018-03-01T12:53:50.027Z,2.50
2018-03-01T12:56:18.616Z,2.50
2018-03-01T12:58:46.198Z,2.30
2018-03-01T13:01:13.757Z,2.40
2018-03-01T13:03:41.289Z,2.00
2018-03-01T13:06:08.861Z,2.40
2018-03-01T13:08:37.392Z,2.00
2018-03-01T13:11:05.154Z,2.40
2018-03-01T13:13:32.715Z,2.70
2018-03-01T13:16:00.293Z,2.40
2018-03-01T13:18:27.847Z,1.80
2018-03-01T13:20:55.468Z,2.20
2018-03-01T13:23:22.984Z,2.50
2018-03-01T13:25:50.510Z,2.50
2018-03-01T13:28:18.068Z,2.60
2018-03-01T13:30:46.375Z,2.90
2018-03-01T13:36:07.451Z,2.30
2018-03-01T13:38:35.050Z,1.80
2018-03-01T13:41:02.650Z,2.30
2018-03-01T13:43:35.524Z,3.30
2018-03-01T13:46:19.724Z,3.30
2018-03-01T13:48:47.482Z,3.60
2018-03-01T13:51:15.221Z,3.40
2018-03-01T13:53:43.032Z,2.90
2018-03-01T13:56:10.589Z,2.50
2018-03-01T13:58:38.135Z,2.20
2018-03-01T14:01:06.659Z,2.10
2018-03-01T14:03:34.269Z,2.10
2018-03-01T14:06:11.750Z,2.10
2018-03-01T14:08:39.323Z,2.20
2018-03-01T14:11:06.854Z,2.60
2018-03-01T14:13:47.299Z,2.70
2018-03-01T14:16:15.815Z,2.40
2018-03-01T14:18:56.171Z,2.00
2018-03-01T14:21:29.248Z,2.10
2018-03-01T14:24:17.051Z,2.00
2018-03-01T14:26:46.455Z,2.60
2018-03-01T14:29:19.808Z,2.70
2018-03-01T14:31:48.330Z,2.50
2018-03-01T14:34:15.901Z,2.60
2018-03-01T14:36:44.200Z,2.50
2018-03-01T14:39:11.760Z,2.50
2018-03-01T14:41:40.244Z,2.00
2018-03-01T14:44:07.786Z,2.10
2018-03-01T14:46:35.346Z,2.10
2018-03-01T14:49:03.846Z,2.00
2018-03-01T14:51:31.406Z,2.00
2018-03-01T14:53:58.932Z,2.20
2018-03-01T14:56:27.267Z,1.90
2018-03-01T14:58:54.816Z,1.90
2018-03-01T15:01:22.387Z,2.00
2018-03-01T15:03:49.923Z,1.90
2018-03-01T15:06:17.552Z,1.70
2018-03-01T15:08:45.879Z,2.30
2018-03-01T15:11:13.416Z,2.30
2018-03-01T15:13:42.928Z,2.00
2018-03-01T15:16:10.466Z,2.30
2018-03-01T15:18:38.030Z,2.20
2018-03-01T15:21:05.568Z,2.20
2018-03-01T15:23:33.127Z,2.10
2018-03-01T15:26:01.626Z,2.40
2018-03-01T15:28:29.163Z,2.60
2018-03-01T15:30:56.755Z,2.90
2018-03-01T15:33:24.300Z,2.80
2018-03-01T15:35:51.854Z,2.30
2018-03-01T15:38:20.344Z,2.30
2018-03-01T15:40:48.849Z,2.60
2018-03-01T15:43:16.375Z,2.70
2018-03-01T15:45:43.941Z,2.60
2018-03-01T15:48:11.476Z,2.40
2018-03-01T15:50:39.000Z,2.20
2018-03-01T15:53:06.563Z,2.20
2018-03-01T15:55:34.100Z,2.10
2018-03-01T15:58:01.673Z,2.20
2018-03-01T16:00:29.205Z,2.20
2018-03-01T16:02:56.764Z,2.10
2018-03-01T16:05:24.299Z,2.10
2018-03-01T16:07:52.600Z,1.80
2018-03-01T16:10:20.168Z,1.80
2018-03-01T16:12:47.702Z,1.90
2018-03-01T16:15:15.266Z,2.00
2018-03-01T16:17:42.803Z,1.90
2018-03-01T16:20:12.096Z,1.90
2018-03-01T16:22:39.671Z,1.90
2018-03-01T16:25:07.247Z,1.80
2018-03-01T16:27:34.997Z,1.60
2018-03-01T16:30:02.537Z,1.00
2018-03-01T16:32:30.896Z,1.30
2018-03-01T16:34:59.190Z,1.10
2018-03-01T16:37:28.538Z,1.10
2018-03-01T16:39:57.013Z,1.00
2018-03-01T16:42:24.593Z,1.20
2018-03-01T16:44:52.125Z,1.30
2018-03-01T16:47:19.680Z,1.40
2018-03-01T16:49:47.218Z,1.20
2018-03-01T16:52:14.767Z,1.00
2018-03-01T16:54:43.094Z,1.20
2018-03-01T16:57:11.593Z,1.20
2018-03-01T16:59:39.201Z,1.30
2018-03-01T17:02:07.683Z,1.40
2018-03-01T17:04:35.242Z,1.50
2018-03-01T17:07:02.774Z,1.40
2018-03-01T17:09:30.329Z,1.30
2018-03-01T17:11:58.812Z,1.10
2018-03-01T17:14:26.388Z,1.20
2018-03-01T17:16:54.722Z,1.20
2018-03-01T17:19:22.259Z,1.20
2018-03-01T17:21:49.817Z,1.10
2018-03-01T17:24:17.828Z,1.10
2018-03-01T17:26:52.204Z,1.20
2018-03-01T17:29:19.729Z,0.90
2018-03-01T17:31:47.272Z,0.60
2018-03-01T17:34:15.600Z,0.80
2018-03-01T17:36:43.128Z,0.80
2018-03-01T17:39:11.455Z,0.50
2018-03-01T17:41:38.997Z,0.50
2018-03-01T17:44:06.560Z,0.50
2018-03-01T17:46:34.092Z,0.50
2018-03-01T17:49:01.654Z,0.30
2018-03-01T17:51:29.238Z,0.20
2018-03-01T17:53:56.769Z,0.50
2018-03-01T17:56:24.332Z,0.70
2018-03-01T17:58:51.867Z,0.90
2018-03-01T18:01:19.430Z,1.00
2018-03-01T18:03:46.968Z,1.10
2018-03-01T18:06:14.545Z,1.20
2018-03-01T18:08:42.143Z,1.20
2018-03-01T18:11:11.612Z,1.30
2018-03-01T18:13:39.145Z,1.40
2018-03-01T18:16:06.679Z,1.40
2018-03-01T18:18:34.237Z,1.30
2018-03-01T18:21:01.796Z,1.40
2018-03-01T18:23:29.406Z,1.10
2018-03-01T18:25:57.728Z,0.80
2018-03-01T18:28:27.228Z,0.80
2018-03-01T18:30:54.759Z,0.50
2018-03-01T18:33:23.277Z,0.40
2018-03-01T18:35:50.840Z,0.40
2018-03-01T18:38:18.383Z,0.30
2018-03-01T18:40:45.934Z,0.30
2018-03-01T18:43:13.464Z,0.40
2018-03-01T18:45:41.975Z,0.70
2018-03-01T18:48:09.507Z,0.60
2018-03-01T18:50:37.044Z,0.50
2018-03-01T18:53:05.574Z,0.50
2018-03-01T18:55:33.121Z,0.70
2018-03-01T18:58:00.708Z,0.70
2018-03-01T19:00:28.248Z,0.50
2018-03-01T19:02:55.811Z,0.50
2018-03-01T19:05:23.347Z,0.80
2018-03-01T19:07:50.922Z,0.70
2018-03-01T19:10:18.451Z,0.60
2018-03-01T19:12:46.747Z,0.60
2018-03-01T19:15:14.353Z,0.60
2018-03-01T19:17:41.879Z,0.60
2018-03-01T19:20:09.678Z,0.50
2018-03-01T19:22:38.432Z,0.50
2018-03-01T19:25:06.021Z,0.60
2018-03-01T19:27:34.582Z,0.80
2018-03-01T19:30:04.498Z,0.90
2018-03-01T19:32:32.762Z,0.50
2018-03-01T19:35:00.784Z,0.70
2018-03-01T19:37:30.718Z,0.90
2018-03-01T19:40:00.013Z,1.00
2018-03-01T19:42:27.594Z,1.00
2018-03-01T19:44:55.168Z,1.10
2018-03-01T19:47:22.758Z,1.10
2018-03-01T19:49:50.288Z,1.20
2018-03-01T19:52:17.836Z,1.20
2018-03-01T19:54:45.391Z,1.30
2018-03-01T19:57:12.921Z,0.60
2018-03-01T19:59:41.441Z,0.30
2018-03-01T20:02:09.021Z,0.60
2018-03-01T20:04:36.570Z,0.70
2018-03-01T20:07:04.143Z,0.60
2018-03-01T20:09:31.694Z,0.50
2018-03-01T20:11:59.443Z,0.50
2018-03-01T20:14:27.040Z,0.50
2018-03-01T20:16:54.579Z,0.30
2018-03-01T20:19:22.144Z,0.10
2018-03-01T20:21:50.486Z,0.30
2018-03-01T20:24:18.924Z,0.30
2018-03-01T20:26:46.463Z,0.10
2018-03-01T20:29:14.005Z,-0.10
2018-03-01T20:31:41.575Z,-0.10
2018-03-01T20:34:09.122Z,0.20
2018-03-01T20:36:36.692Z,0.30
2018-03-01T20:39:04.252Z,0.30
2018-03-01T20:41:31.802Z,0.10
2018-03-01T20:43:59.341Z,0.10
2018-03-01T20:46:26.912Z,0.30
2018-03-01T20:48:54.447Z,0.50
2018-03-01T20:51:22.006Z,0.60
2018-03-01T20:53:51.511Z,0.70
2018-03-01T20:56:19.083Z,0.70
2018-03-01T20:58:46.654Z,0.80
2018-03-01T21:01:14.192Z,0.70
2018-03-01T21:03:41.743Z,0.60
2018-03-01T21:06:11.216Z,0.50
2018-03-01T21:08:39.610Z,0.40
2018-03-01T21:11:08.749Z,0.60
2018-03-01T21:13:36.275Z,0.60
2018-03-01T21:16:03.809Z,0.70
2018-03-01T21:18:31.366Z,0.60
2018-03-01T21:20:58.895Z,0.60
2018-03-01T21:23:26.455Z,0.40
2018-03-01T21:25:53.990Z,0.50
2018-03-01T21:28:21.542Z,0.60
2018-03-01T21:30:49.104Z,0.80
2018-03-01T21:33:16.644Z,0.90
2018-03-01T21:35:44.984Z,0.60
2018-03-01T21:38:12.514Z,0.60
2018-03-01T21:40:40.052Z,0.30
2018-03-01T21:43:07.619Z,-0.20
2018-03-01T21:45:35.154Z,0.00
2018-03-01T21:48:02.720Z,0.30
2018-03-01T21:50:31.218Z,0.40
2018-03-01T21:52:58.805Z,0.30
2018-03-01T21:55:26.383Z,0.30
2018-03-01T21:57:53.916Z,0.00
2018-03-01T22:00:21.486Z,0.10
2018-03-01T22:02:49.030Z,0.00
2018-03-01T22:05:16.563Z,0.10
2018-03-01T22:07:44.133Z,-0.10
2018-03-01T22:10:11.678Z,0.10
2018-03-01T22:12:39.236Z,0.10
2018-03-01T22:15:06.774Z,0.30
2018-03-01T22:17:35.109Z,0.40
2018-03-01T22:20:02.669Z,0.40
2018-03-01T22:22:30.226Z,0.40
2018-03-01T22:24:57.781Z,0.20
2018-03-01T22:27:26.279Z,0.00
2018-03-01T22:29:53.851Z,0.20
2018-03-01T22:32:22.161Z,0.20
2018-03-01T22:34:49.770Z,0.20
2018-03-01T22:37:17.347Z,0.10
2018-03-01T22:39:44.891Z,0.20
2018-03-01T22:42:12.451Z,0.20
2018-03-01T22:44:39.994Z,0.40
2018-03-01T22:47:08.580Z,0.50
2018-03-01T22:49:36.116Z,0.50
2018-03-01T22:52:03.655Z,0.40
2018-03-01T22:54:31.245Z,0.30
2018-03-01T22:56:58.787Z,0.30
2018-03-01T22:59:26.347Z,0.40
2018-03-01T23:01:53.879Z,0.40
2018-03-01T23:04:22.199Z,0.20
2018-03-01T23:06:49.759Z,0.20
2018-03-01T23:09:17.296Z,0.10
2018-03-01T23:11:44.862Z,0.20
2018-03-01T23:14:12.420Z,0.20
2018-03-01T23:16:39.979Z,0.20
2018-03-01T23:19:07.520Z,0.30
2018-03-01T23:21:35.046Z,0.30
2018-03-01T23:24:02.603Z,0.30
2018-03-01T23:26:30.136Z,0.20
2018-03-01T23:28:57.870Z,0.10
2018-03-01T23:31:25.408Z,0.10
2018-03-01T23:33:52.947Z,0.10
2018-03-01T23:36:20.507Z,0.10
2018-03-01T23:38:48.048Z,-0.30
2018-03-01T23:41:15.651Z,-0.20
2018-03-01T23:43:44.939Z,-0.10
2018-03-01T23:46:13.262Z,-0.10
2018-03-01T23:48:40.849Z,-0.10
2018-03-01T23:51:08.391Z,-0.10
2018-03-01T23:53:35.977Z,-0.10
2018-03-01T23:56:03.512Z,-0.10
2018-03-01T23:58:31.057Z,-0.20
